Sylvan Grove, Kansas
Current Conditions -  °F | °C
As of 3:53 PM on Wednesday 28 Jan 2015 (Local Time) from KRSL Reporting Station
Clear Clear  
Wind Chill: 72°   Ceiling: Unl
Heat Index: 72°   Visibility: 10mi
Dew Point: 31°   Wind: 24mph
Humidity: 22%   Direction: 310°NW
Pressure: 29.79"   Gusts: 33mph
Location:  39.01°N, 98.39°W
Report Text: KRSL 282153Z AUTO 31021G29KT 10SM CLR 22/M01 A2979 RMK AO2 PK WND 30031/2113 SLP082 T02221006
Loading
Personal Weather Stations






























Interactive Weather Map New forecast layout! Learn more

10-Day Weather Forecast

Advertisements
Track Severe Weather on mobile